Terminal Aerodrome Forecast
Issued by NWS Northern Indiana

Home | Current Version | Previous Version | Graphics & Text | Print | Product List | Glossary On
Versions: 1 2 3 4 5 6 7 8 9 10 11 12 13 14 15 16 17
000
FTUS43 KIWX 252346
TAFFWA
TAF
KFWA 252346Z 2600/2624 23012KT P6SM SCT070
     FM260300 22013KT P6SM VCTS BKN070CB
      TEMPO 2603/2605 5SM -TSRA BKN050CB
     FM260800 24012KT P6SM BKN025=

USA.gov is the U.S. government's official web portal to all federal, state and local government web resources and services.